Time;durP1;ratioP1;P1;durP2;ratioP2;P2;SDS_P1;SDS_P2;PMS_P1;PMS_P2;Temp;Humidity;BMP_temperature;BMP_pressure;BME280_temperature;BME280_humidity;BME280_pressure;Samples;Min_cycle;Max_cycle;Signal;HPM_P1;HPM_P2
2023/06/06 00:00:57;;;;;;;11.75;6.97;;;;;;;;;;4436696;32;20484;-72
2023/06/06 00:03:23;;;;;;;10.82;6.95;;;;;;;;;;4435766;32;20135;-72
2023/06/06 00:05:48;;;;;;;18.92;8.43;;;;;;;;;;4436238;32;20033;-72
2023/06/06 00:08:14;;;;;;;13.20;7.65;;;;;;;;;;4434960;32;20034;-72
2023/06/06 00:10:39;;;;;;;;;;;;;;;;;;4436378;32;20021;-72
2023/06/06 00:13:04;;;;;;;13.18;7.15;;;;;;;;;;4436169;32;20312;-71
2023/06/06 00:15:30;;;;;;;12.18;8.18;;;;;;;;;;4436554;32;20030;-72
2023/06/06 00:17:56;;;;;;;16.70;8.15;;;;;;;;;;4436205;32;20057;-72
2023/06/06 00:20:21;;;;;;;12.48;7.47;;;;;;;;;;4435596;32;20030;-71
2023/06/06 00:22:48;;;;;;;13.98;7.85;;;;;;;;;;4434908;32;20017;-72
2023/06/06 00:25:14;;;;;;;14.63;8.45;;;;;;;;;;4434868;32;20033;-72
2023/06/06 00:27:39;;;;;;;12.57;7.87;;;;;;;;;;4435017;32;20442;-72
2023/06/06 00:30:05;;;;;;;15.88;7.93;;;;;;;;;;4434844;32;20057;-72
2023/06/06 00:32:31;;;;;;;13.43;7.97;;;;;;;;;;4434890;32;20066;-71
2023/06/06 00:34:57;;;;;;;12.57;8.63;;;;;;;;;;4434325;32;20052;-71
2023/06/06 00:37:22;;;;;;;14.45;7.85;;;;;;;;;;4436341;32;20052;-70
2023/06/06 00:39:48;;;;;;;13.48;7.45;;;;;;;;;;4434919;32;20021;-71
2023/06/06 00:42:13;;;;;;;13.93;8.48;;;;;;;;;;4435889;32;20047;-72
2023/06/06 00:44:38;;;;;;;12.18;7.75;;;;;;;;;;4434244;32;20540;-72
2023/06/06 00:47:03;;;;;;;14.80;8.18;;;;;;;;;;4436842;32;20017;-71
2023/06/06 00:49:29;;;;;;;13.15;8.75;;;;;;;;;;4434567;32;20018;-72
2023/06/06 00:51:55;;;;;;;16.15;7.87;;;;;;;;;;4434604;32;20239;-72
2023/06/06 00:54:20;;;;;;;;;;;;;;;;;;4434711;32;20026;-73
2023/06/06 00:56:47;;;;;;;15.80;7.93;;;;;;;;;;4435437;32;19974;-71
2023/06/06 00:59:13;;;;;;;15.43;8.05;;;;;;;;;;4435782;32;20174;-71
2023/06/06 01:01:39;;;;;;;14.38;8.23;;;;;;;;;;4435529;32;20117;-71
2023/06/06 01:04:08;;;;;;;12.48;8.43;;;;;;;;;;4434202;32;20388;-72
2023/06/06 01:06:35;;;;;;;19.05;9.07;;;;;;;;;;4435589;32;20030;-72
2023/06/06 01:09:04;;;;;;;14.90;9.00;;;;;;;;;;4434038;32;20336;-72
2023/06/06 01:11:32;;;;;;;16.75;7.75;;;;;;;;;;4435515;32;20049;-72
2023/06/06 01:14:09;;;;;;;18.42;8.48;;;;;;;;;;4434128;32;20021;-72
2023/06/06 01:16:35;;;;;;;13.15;8.10;;;;;;;;;;4436380;32;20014;-70
2023/06/06 01:19:01;;;;;;;13.23;7.53;;;;;;;;;;4435658;32;20747;-71
2023/06/06 01:21:39;;;;;;;12.93;7.78;;;;;;;;;;4435471;32;20021;-71
2023/06/06 01:24:05;;;;;;;16.73;9.38;;;;;;;;;;4436009;32;20029;-71
2023/06/06 01:26:30;;;;;;;14.65;8.65;;;;;;;;;;4434212;32;20075;-72
2023/06/06 01:28:55;;;;;;;16.15;8.60;;;;;;;;;;4435290;32;20025;-72
2023/06/06 01:31:22;;;;;;;15.05;8.73;;;;;;;;;;4435737;32;20086;-71
2023/06/06 01:33:54;;;;;;;15.38;8.68;;;;;;;;;;4434072;32;20025;-71
2023/06/06 01:36:33;;;;;;;14.82;8.10;;;;;;;;;;4434847;32;20085;-72
2023/06/06 01:39:06;;;;;;;15.88;8.88;;;;;;;;;;4434169;32;20439;-72
2023/06/06 01:41:33;;;;;;;13.82;8.45;;;;;;;;;;4435792;32;20386;-72
2023/06/06 01:43:59;;;;;;;15.15;8.52;;;;;;;;;;4435657;32;20300;-71
2023/06/06 01:46:25;;;;;;;14.05;8.48;;;;;;;;;;4434263;32;20093;-71
2023/06/06 01:48:51;;;;;;;14.80;10.57;;;;;;;;;;4433920;32;20070;-72
2023/06/06 01:51:16;;;;;;;12.27;8.57;;;;;;;;;;4435408;32;20381;-72
2023/06/06 01:53:42;;;;;;;13.88;8.43;;;;;;;;;;4429635;32;20038;-71
2023/06/06 01:56:12;;;;;;;14.52;8.38;;;;;;;;;;4423710;32;20082;-71
2023/06/06 01:58:37;;;;;;;16.33;8.57;;;;;;;;;;4434186;32;20510;-71
2023/06/06 02:01:03;;;;;;;14.90;7.70;;;;;;;;;;4435064;32;20022;-71
2023/06/06 02:03:28;;;;;;;15.95;9.68;;;;;;;;;;4434441;32;20045;-71
2023/06/06 02:05:54;;;;;;;13.40;8.20;;;;;;;;;;4435026;32;20366;-71
2023/06/06 02:08:20;;;;;;;15.38;8.45;;;;;;;;;;4433843;32;20419;-72
2023/06/06 02:10:45;;;;;;;13.70;8.35;;;;;;;;;;4435459;32;20132;-72
2023/06/06 02:13:11;;;;;;;11.98;8.43;;;;;;;;;;4436955;32;20351;-71
2023/06/06 02:15:36;;;;;;;12.98;7.68;;;;;;;;;;4438006;32;20022;-71
2023/06/06 02:18:01;;;;;;;;;;;;;;;;;;4438752;32;20038;-71
2023/06/06 02:20:26;;;;;;;12.13;7.12;;;;;;;;;;4436822;32;19941;-71
2023/06/06 02:22:51;;;;;;;;;;;;;;;;;;4437053;32;20117;-72
2023/06/06 02:25:17;;;;;;;14.35;7.70;;;;;;;;;;4437763;32;19983;-72
2023/06/06 02:27:48;;;;;;;;;;;;;;;;;;4437800;32;20144;-71
2023/06/06 02:30:13;;;;;;;10.43;8.05;;;;;;;;;;4437839;32;20392;-71
2023/06/06 02:32:39;;;;;;;11.02;7.85;;;;;;;;;;4432808;32;20104;-72
2023/06/06 02:35:04;;;;;;;15.75;8.20;;;;;;;;;;4435862;32;20022;-71
2023/06/06 02:37:30;;;;;;;16.83;8.60;;;;;;;;;;4423277;32;20367;-71
2023/06/06 02:39:55;;;;;;;;;;;;;;;;;;4422588;32;20062;-72
2023/06/06 02:42:21;;;;;;;15.00;8.23;;;;;;;;;;4420961;32;19937;-72
2023/06/06 02:44:46;;;;;;;15.93;9.13;;;;;;;;;;4421675;32;20022;-71
2023/06/06 02:47:11;;;;;;;15.20;8.23;;;;;;;;;;4422826;32;20071;-71
2023/06/06 02:49:37;;;;;;;13.60;8.23;;;;;;;;;;4421501;32;20060;-71
2023/06/06 02:52:02;;;;;;;14.23;8.40;;;;;;;;;;4420985;32;20454;-71
2023/06/06 02:54:27;;;;;;;;;;;;;;;;;;4436302;32;20034;-72
2023/06/06 02:56:52;;;;;;;11.80;7.57;;;;;;;;;;4424417;32;19943;-70
2023/06/06 02:59:18;;;;;;;15.48;7.82;;;;;;;;;;4437497;32;20105;-72
2023/06/06 03:01:44;;;;;;;;;;;;;;;;;;4437941;32;20047;-71
2023/06/06 03:04:12;;;;;;;11.98;7.80;;;;;;;;;;4423625;32;19941;-71
2023/06/06 03:06:41;;;;;;;11.88;8.43;;;;;;;;;;4436858;32;20026;-72
2023/06/06 03:09:06;;;;;;;12.30;8.10;;;;;;;;;;4423299;32;20057;-73
2023/06/06 03:11:31;;;;;;;16.10;8.45;;;;;;;;;;4436665;32;20415;-71
2023/06/06 03:13:57;;;;;;;;;;;;;;;;;;4438498;32;20395;-72
2023/06/06 03:16:26;;;;;;;14.30;7.32;;;;;;;;;;4443285;32;20342;-73
2023/06/06 03:18:51;;;;;;;12.05;8.07;;;;;;;;;;4438245;32;20059;-71
2023/06/06 03:21:17;;;;;;;14.45;8.23;;;;;;;;;;4436658;32;20354;-70
2023/06/06 03:23:42;;;;;;;;;;;;;;;;;;4422930;32;20078;-71
2023/06/06 03:26:07;;;;;;;14.57;7.70;;;;;;;;;;4436614;32;19941;-72
2023/06/06 03:28:32;;;;;;;;;;;;;;;;;;4424615;32;20117;-72
2023/06/06 03:30:57;;;;;;;11.68;7.65;;;;;;;;;;4424148;32;19947;-72
2023/06/06 03:33:23;;;;;;;;;;;;;;;;;;4423025;32;20211;-72
2023/06/06 03:35:48;;;;;;;15.82;7.25;;;;;;;;;;4437514;32;19951;-71
2023/06/06 03:38:13;;;;;;;13.68;7.97;;;;;;;;;;4423312;32;20022;-70
2023/06/06 03:40:38;;;;;;;;;;;;;;;;;;4423133;32;20030;-71
2023/06/06 03:43:03;;;;;;;16.30;8.00;;;;;;;;;;4437470;32;19929;-71
2023/06/06 03:45:28;;;;;;;;;;;;;;;;;;4423300;32;20152;-71
2023/06/06 03:47:54;;;;;;;16.23;8.68;;;;;;;;;;4436349;32;19980;-71
2023/06/06 03:50:21;;;;;;;14.20;8.88;;;;;;;;;;4422708;32;20026;-71
2023/06/06 03:52:46;;;;;;;9.35;6.80;;;;;;;;;;4436497;32;20046;-72
2023/06/06 03:55:11;;;;;;;13.93;8.00;;;;;;;;;;4451968;32;20483;-72
2023/06/06 03:57:37;;;;;;;13.85;7.95;;;;;;;;;;4437536;32;20105;-71
2023/06/06 04:00:08;;;;;;;12.75;7.37;;;;;;;;;;4452611;32;20041;-71
2023/06/06 04:02:34;;;;;;;14.45;8.35;;;;;;;;;;4452354;32;20041;-72
2023/06/06 04:05:01;;;;;;;13.75;7.75;;;;;;;;;;4444861;32;20056;-72
2023/06/06 04:07:28;;;;;;;12.45;8.35;;;;;;;;;;4436714;32;20056;-71
2023/06/06 04:09:53;;;;;;;15.55;7.28;;;;;;;;;;4434876;32;20040;-72
2023/06/06 04:12:18;;;;;;;12.73;8.02;;;;;;;;;;4435054;32;20358;-71
2023/06/06 04:14:43;;;;;;;12.30;8.80;;;;;;;;;;4434606;32;20052;-72
2023/06/06 04:17:09;;;;;;;;;;;;;;;;;;4435584;32;20104;-72
2023/06/06 04:19:34;;;;;;;19.62;9.70;;;;;;;;;;4436446;32;19989;-71
2023/06/06 04:22:00;;;;;;;17.58;7.60;;;;;;;;;;4436514;32;20030;-71
2023/06/06 04:24:25;;;;;;;15.15;8.02;;;;;;;;;;4435660;32;20072;-73
2023/06/06 04:26:50;;;;;;;14.63;6.90;;;;;;;;;;4445767;32;20016;-72
2023/06/06 04:29:15;;;;;;;18.17;7.87;;;;;;;;;;4452820;32;20150;-72
2023/06/06 04:31:41;;;;;;;18.62;7.75;;;;;;;;;;4451214;32;20066;-71
2023/06/06 04:34:06;;;;;;;13.68;7.05;;;;;;;;;;4451586;32;20026;-72
2023/06/06 04:36:33;;;;;;;12.15;7.22;;;;;;;;;;4450461;32;20146;-74
2023/06/06 04:39:00;;;;;;;12.80;6.32;;;;;;;;;;4437163;32;20029;-72
2023/06/06 04:41:30;;;;;;;11.85;7.15;;;;;;;;;;4450682;32;20061;-70
2023/06/06 04:43:56;;;;;;;13.90;7.03;;;;;;;;;;4451642;32;20084;-71
2023/06/06 04:46:22;;;;;;;13.90;7.37;;;;;;;;;;4451387;32;20040;-71
2023/06/06 04:48:53;;;;;;;8.55;6.32;;;;;;;;;;4438482;32;20044;-72
2023/06/06 04:51:29;;;;;;;12.65;6.55;;;;;;;;;;4436694;32;20017;-72
2023/06/06 04:53:54;;;;;;;11.93;6.53;;;;;;;;;;4436587;32;20033;-72
2023/06/06 04:56:20;;;;;;;11.82;7.55;;;;;;;;;;4437441;32;20051;-72
2023/06/06 04:58:46;;;;;;;13.62;7.18;;;;;;;;;;4453111;32;20106;-71
2023/06/06 05:01:12;;;;;;;14.00;6.65;;;;;;;;;;4450942;32;20021;-71
2023/06/06 05:03:38;;;;;;;13.65;6.93;;;;;;;;;;4451631;32;20460;-71
2023/06/06 05:06:04;;;;;;;12.13;6.80;;;;;;;;;;4450727;32;20132;-72
2023/06/06 05:08:31;;;;;;;11.90;6.68;;;;;;;;;;4451076;32;20022;-71
2023/06/06 05:10:57;;;;;;;10.68;7.32;;;;;;;;;;4450892;32;20078;-70
2023/06/06 05:13:22;;;;;;;15.63;7.22;;;;;;;;;;4450566;32;20022;-72
2023/06/06 05:15:47;;;;;;;16.77;7.30;;;;;;;;;;4450698;32;20043;-72
2023/06/06 05:18:12;;;;;;;22.10;7.67;;;;;;;;;;4437039;32;20138;-71
2023/06/06 05:20:37;;;;;;;18.40;7.87;;;;;;;;;;4437486;32;20140;-71
2023/06/06 05:23:05;;;;;;;12.80;7.25;;;;;;;;;;4432733;32;20044;-72
2023/06/06 05:25:30;;;;;;;14.87;7.78;;;;;;;;;;4441117;32;20434;-71
2023/06/06 05:27:55;;;;;;;15.07;7.37;;;;;;;;;;4432510;32;20087;-71
2023/06/06 05:30:20;;;;;;;16.33;8.13;;;;;;;;;;4441685;32;20022;-72
2023/06/06 05:32:45;;;;;;;12.70;7.55;;;;;;;;;;4445437;32;20021;-71
2023/06/06 05:35:11;;;;;;;15.65;7.05;;;;;;;;;;4451108;32;20410;-71
2023/06/06 05:37:36;;;;;;;13.02;7.37;;;;;;;;;;4451026;32;20022;-71
2023/06/06 05:40:01;;;;;;;21.10;6.80;;;;;;;;;;4450462;32;20040;-71
2023/06/06 05:42:26;;;;;;;14.45;7.20;;;;;;;;;;4437005;32;20374;-71
2023/06/06 05:44:51;;;;;;;10.70;6.82;;;;;;;;;;4434734;32;20022;-71
2023/06/06 05:47:17;;;;;;;14.93;6.62;;;;;;;;;;4436544;32;20051;-71
2023/06/06 05:49:42;;;;;;;13.30;6.85;;;;;;;;;;4439231;32;20074;-71
2023/06/06 05:52:07;;;;;;;12.80;6.20;;;;;;;;;;4424368;32;20133;-70
2023/06/06 05:54:34;;;;;;;17.67;7.70;;;;;;;;;;4438318;32;20045;-71
2023/06/06 05:57:01;;;;;;;11.82;6.40;;;;;;;;;;4433665;32;20061;-70
2023/06/06 05:59:26;;;;;;;20.27;8.88;;;;;;;;;;4438514;32;20065;-70
2023/06/06 06:01:51;;;;;;;12.85;5.97;;;;;;;;;;4453736;32;20044;-70
2023/06/06 06:04:18;;;;;;;17.65;7.37;;;;;;;;;;4437816;32;20014;-71
2023/06/06 06:06:46;;;;;;;17.55;7.30;;;;;;;;;;4437923;32;20098;-71
2023/06/06 06:09:12;;;;;;;14.18;6.30;;;;;;;;;;4436342;32;20022;-71
2023/06/06 06:11:37;;;;;;;11.73;6.75;;;;;;;;;;4443434;32;20036;-71
2023/06/06 06:14:02;;;;;;;16.17;6.85;;;;;;;;;;4450725;32;20017;-71
2023/06/06 06:16:27;;;;;;;15.68;7.03;;;;;;;;;;4451444;32;20022;-72
2023/06/06 06:18:52;;;;;;;10.82;6.62;;;;;;;;;;4454070;32;20120;-71
2023/06/06 06:21:19;;;;;;;16.65;7.50;;;;;;;;;;4452529;32;20108;-72
2023/06/06 06:23:44;;;;;;;11.60;6.18;;;;;;;;;;4446087;32;20085;-71
2023/06/06 06:26:10;;;;;;;11.63;6.60;;;;;;;;;;4439692;32;20045;-71
2023/06/06 06:28:35;;;;;;;10.02;5.90;;;;;;;;;;4453303;32;20390;-71
2023/06/06 06:31:00;;;;;;;14.10;6.65;;;;;;;;;;4439681;32;20017;-72
2023/06/06 06:33:27;;;;;;;14.63;8.00;;;;;;;;;;4439029;32;20022;-71
2023/06/06 06:35:52;;;;;;;13.90;7.37;;;;;;;;;;4453152;32;20116;-71
2023/06/06 06:38:17;;;;;;;14.48;8.20;;;;;;;;;;4453664;32;20013;-71
2023/06/06 06:40:42;;;;;;;14.27;6.75;;;;;;;;;;4438630;32;20037;-71
2023/06/06 06:43:08;;;;;;;14.48;6.72;;;;;;;;;;4438649;32;20048;-71
2023/06/06 06:45:33;;;;;;;15.63;7.22;;;;;;;;;;4439085;32;20364;-70
2023/06/06 06:48:02;;;;;;;14.40;7.47;;;;;;;;;;4453306;32;20087;-72
2023/06/06 06:50:27;;;;;;;13.20;7.55;;;;;;;;;;4452400;32;20056;-71
2023/06/06 06:52:53;;;;;;;17.35;7.57;;;;;;;;;;4445613;32;20042;-71
2023/06/06 06:55:19;;;;;;;14.82;6.72;;;;;;;;;;4444311;32;20025;-71
2023/06/06 06:57:44;;;;;;;16.10;7.62;;;;;;;;;;4453034;32;20089;-71
2023/06/06 07:00:14;;;;;;;14.25;6.50;;;;;;;;;;4429592;32;20061;-72
2023/06/06 07:02:39;;;;;;;21.75;7.82;;;;;;;;;;4437449;32;20029;-71
2023/06/06 07:05:06;;;;;;;13.32;6.93;;;;;;;;;;4437511;32;20018;-72
2023/06/06 07:07:32;;;;;;;11.70;6.87;;;;;;;;;;4438296;32;20120;-70
2023/06/06 07:09:57;;;;;;;16.57;7.00;;;;;;;;;;4441470;32;20364;-71
2023/06/06 07:12:22;;;;;;;13.48;7.03;;;;;;;;;;4447904;32;20158;-70
2023/06/06 07:14:47;;;;;;;14.82;6.60;;;;;;;;;;4448612;32;20018;-72
2023/06/06 07:17:15;;;;;;;14.87;6.22;;;;;;;;;;4437787;32;20021;-70
2023/06/06 07:19:41;;;;;;;13.60;6.32;;;;;;;;;;4452189;32;20109;-70
2023/06/06 07:22:07;;;;;;;12.60;6.25;;;;;;;;;;4452257;32;20021;-70
2023/06/06 07:24:32;;;;;;;11.52;6.00;;;;;;;;;;4436459;32;20083;-71
2023/06/06 07:26:59;;;;;;;16.23;6.53;;;;;;;;;;4437241;32;20292;-71
2023/06/06 07:29:26;;;;;;;13.23;6.97;;;;;;;;;;4445616;32;20045;-71
2023/06/06 07:31:51;;;;;;;12.40;6.50;;;;;;;;;;4453765;32;20021;-70
2023/06/06 07:34:16;;;;;;;11.20;5.93;;;;;;;;;;4453923;32;20051;-72
2023/06/06 07:36:42;;;;;;;14.18;5.78;;;;;;;;;;4453061;32;20033;-70
2023/06/06 07:39:09;;;;;;;10.98;6.05;;;;;;;;;;4453017;32;20022;-71
2023/06/06 07:41:34;;;;;;;11.02;6.37;;;;;;;;;;4451982;32;20029;-71
2023/06/06 07:44:01;;;;;;;12.52;5.35;;;;;;;;;;4452850;32;20487;-70
2023/06/06 07:46:26;;;;;;;10.95;5.93;;;;;;;;;;4451682;32;20087;-69
2023/06/06 07:48:51;;;;;;;11.57;5.35;;;;;;;;;;4438113;32;20017;-70
2023/06/06 07:51:16;;;;;;;13.75;6.00;;;;;;;;;;4437660;32;20033;-70
2023/06/06 07:53:43;;;;;;;15.57;6.00;;;;;;;;;;4451770;32;20059;-70
2023/06/06 07:56:08;;;;;;;12.63;6.32;;;;;;;;;;4430662;32;20386;-70
2023/06/06 07:58:40;;;;;;;9.48;5.35;;;;;;;;;;4436795;32;20041;-70
2023/06/06 08:01:07;;;;;;;16.45;5.97;;;;;;;;;;4426414;32;20110;-71
2023/06/06 08:03:32;;;;;;;11.30;5.60;;;;;;;;;;4434632;32;20445;-69
2023/06/06 08:05:57;;;;;;;11.00;5.95;;;;;;;;;;4437342;32;20026;-70
2023/06/06 08:08:22;;;;;;;10.73;5.70;;;;;;;;;;4437712;32;20040;-70
2023/06/06 08:10:47;;;;;;;10.48;6.37;;;;;;;;;;4435882;32;20014;-70
2023/06/06 08:13:14;;;;;;;11.75;5.78;;;;;;;;;;4436543;32;20025;-70
2023/06/06 08:15:39;;;;;;;15.05;5.90;;;;;;;;;;4441839;32;20029;-70
2023/06/06 08:18:04;;;;;;;13.43;6.30;;;;;;;;;;4424420;32;20427;-70
2023/06/06 08:20:29;;;;;;;11.57;6.62;;;;;;;;;;4442442;32;20025;-70
2023/06/06 08:22:55;;;;;;;11.40;6.07;;;;;;;;;;4435880;32;20101;-70
2023/06/06 08:25:20;;;;;;;14.00;5.85;;;;;;;;;;4436721;32;20044;-70
2023/06/06 08:27:45;;;;;;;10.20;5.22;;;;;;;;;;4421887;32;20531;-70
2023/06/06 08:30:10;;;;;;;12.70;5.87;;;;;;;;;;4435862;32;20063;-70
2023/06/06 08:32:37;;;;;;;11.07;5.75;;;;;;;;;;4436436;32;20069;-70
2023/06/06 08:35:03;;;;;;;16.87;5.85;;;;;;;;;;4436176;32;20018;-71
2023/06/06 08:37:28;;;;;;;12.07;5.90;;;;;;;;;;4437600;32;20432;-72
2023/06/06 08:39:53;;;;;;;10.95;6.20;;;;;;;;;;4436661;32;20408;-72
2023/06/06 08:42:21;;;;;;;10.23;5.50;;;;;;;;;;4451220;32;20060;-71
2023/06/06 08:44:47;;;;;;;12.88;5.18;;;;;;;;;;4451133;32;20134;-71
2023/06/06 08:47:12;;;;;;;12.57;5.68;;;;;;;;;;4452880;32;20025;-70
2023/06/06 08:49:37;;;;;;;14.02;5.93;;;;;;;;;;4437200;32;20018;-72
2023/06/06 08:52:05;;;;;;;18.62;6.15;;;;;;;;;;4451368;32;20403;-71
2023/06/06 08:54:32;;;;;;;18.00;6.75;;;;;;;;;;4450870;32;20048;-71
2023/06/06 08:56:57;;;;;;;16.70;6.97;;;;;;;;;;4452673;32;20047;-70
2023/06/06 08:59:23;;;;;;;13.73;6.45;;;;;;;;;;4452010;32;20021;-70
2023/06/06 09:01:50;;;;;;;18.90;6.40;;;;;;;;;;4451065;32;20040;-71
2023/06/06 09:04:16;;;;;;;13.70;6.50;;;;;;;;;;4450816;32;20068;-71
2023/06/06 09:06:44;;;;;;;14.05;7.07;;;;;;;;;;4437997;32;20066;-70
2023/06/06 09:09:10;;;;;;;20.25;6.62;;;;;;;;;;4453599;32;20025;-70
2023/06/06 09:11:35;;;;;;;14.43;6.30;;;;;;;;;;4450772;32;20013;-71
2023/06/06 09:14:01;;;;;;;15.93;6.57;;;;;;;;;;4452493;32;20017;-71
2023/06/06 09:16:26;;;;;;;12.27;6.15;;;;;;;;;;4452516;32;20083;-71
2023/06/06 09:18:51;;;;;;;14.77;6.18;;;;;;;;;;4436599;32;20022;-70
2023/06/06 09:21:17;;;;;;;11.70;6.35;;;;;;;;;;4442434;32;20399;-69
2023/06/06 09:23:42;;;;;;;13.55;6.80;;;;;;;;;;4434374;32;20013;-71
2023/06/06 09:26:17;;;;;;;17.33;6.62;;;;;;;;;;4434178;32;20086;-72
2023/06/06 09:28:43;;;;;;;15.05;6.60;;;;;;;;;;4436613;32;20370;-72
2023/06/06 09:31:29;;;;;;;14.10;6.22;;;;;;;;;;4435821;32;20022;-70
2023/06/06 09:33:55;;;;;;;12.15;6.32;;;;;;;;;;4434371;32;20010;-72
2023/06/06 09:36:25;;;;;;;11.93;5.97;;;;;;;;;;4435042;32;20127;-70
2023/06/06 09:38:51;;;;;;;15.25;6.87;;;;;;;;;;4434362;32;20034;-70
2023/06/06 09:41:16;;;;;;;11.18;6.00;;;;;;;;;;4435541;32;20060;-71
2023/06/06 09:43:41;;;;;;;11.68;6.93;;;;;;;;;;4435369;32;20051;-72
2023/06/06 09:46:07;;;;;;;16.37;6.67;;;;;;;;;;4435889;32;20022;-72
2023/06/06 09:48:32;;;;;;;14.85;7.43;;;;;;;;;;4435488;32;20186;-71
2023/06/06 09:50:57;;;;;;;13.55;7.10;;;;;;;;;;4437168;32;20048;-71
2023/06/06 09:53:26;;;;;;;14.77;7.40;;;;;;;;;;4435916;32;20029;-71
2023/06/06 09:55:52;;;;;;;19.20;7.28;;;;;;;;;;4434477;32;20042;-71
2023/06/06 09:58:20;;;;;;;15.07;7.12;;;;;;;;;;4435369;32;20021;-70
2023/06/06 10:00:46;;;;;;;17.08;6.05;;;;;;;;;;4436118;32;20070;-71
2023/06/06 10:03:18;;;;;;;11.12;7.90;;;;;;;;;;4433995;32;20108;-72
2023/06/06 10:05:45;;;;;;;13.32;6.90;;;;;;;;;;4435048;32;20059;-72
2023/06/06 10:08:10;;;;;;;13.90;6.62;;;;;;;;;;4434045;32;20453;-71
2023/06/06 10:10:36;;;;;;;13.85;6.75;;;;;;;;;;4435400;32;20049;-71
2023/06/06 10:13:02;;;;;;;12.90;6.97;;;;;;;;;;4435165;32;20026;-70
2023/06/06 10:15:28;;;;;;;12.95;7.05;;;;;;;;;;4435082;32;20071;-70
2023/06/06 10:17:53;;;;;;;15.55;6.90;;;;;;;;;;4435178;32;20022;-71
2023/06/06 10:20:20;;;;;;;13.02;6.87;;;;;;;;;;4435592;32;20071;-71
2023/06/06 10:22:45;;;;;;;10.50;6.37;;;;;;;;;;4435900;32;20052;-71
2023/06/06 10:25:12;;;;;;;12.20;7.15;;;;;;;;;;4448544;32;20025;-71
2023/06/06 10:27:40;;;;;;;17.95;7.12;;;;;;;;;;4436173;32;20037;-70
2023/06/06 10:30:26;;;;;;;12.25;7.35;;;;;;;;;;4451694;32;20059;-71
2023/06/06 10:32:59;;;;;;;12.67;7.63;;;;;;;;;;4436492;32;20389;-71
2023/06/06 10:35:24;;;;;;;13.73;7.62;;;;;;;;;;4440125;32;20080;-71
2023/06/06 10:38:07;;;;;;;15.25;6.93;;;;;;;;;;4439578;32;20064;-71
2023/06/06 10:40:47;;;;;;;10.60;7.20;;;;;;;;;;4453888;32;20064;-71
2023/06/06 10:43:14;;;;;;;12.30;7.50;;;;;;;;;;4438682;32;20369;-72
2023/06/06 10:45:40;;;;;;;12.05;7.30;;;;;;;;;;4452980;32;20055;-70
2023/06/06 10:48:06;;;;;;;11.98;7.45;;;;;;;;;;4433927;32;20065;-70
2023/06/06 10:50:32;;;;;;;15.67;7.43;;;;;;;;;;4425196;32;20382;-70
2023/06/06 10:53:04;;;;;;;12.73;7.30;;;;;;;;;;4438863;32;20129;-71
2023/06/06 10:55:30;;;;;;;19.85;7.87;;;;;;;;;;4437791;32;20018;-71
2023/06/06 10:57:55;;;;;;;10.27;6.78;;;;;;;;;;4437231;32;20113;-71
2023/06/06 11:00:22;;;;;;;13.95;7.37;;;;;;;;;;4437875;32;20026;-71
2023/06/06 11:02:47;;;;;;;15.20;6.40;;;;;;;;;;4437312;32;20181;-71
2023/06/06 11:05:13;;;;;;;13.07;7.32;;;;;;;;;;4437326;32;20355;-71
2023/06/06 11:07:38;;;;;;;17.50;7.20;;;;;;;;;;4438332;32;20018;-71
2023/06/06 11:10:03;;;;;;;13.62;6.80;;;;;;;;;;4439544;32;20021;-70
2023/06/06 11:12:30;;;;;;;12.40;7.12;;;;;;;;;;4423396;32;20045;-71
2023/06/06 11:15:01;;;;;;;12.27;7.45;;;;;;;;;;4438389;32;20026;-72
2023/06/06 11:17:42;;;;;;;11.95;7.20;;;;;;;;;;4436902;32;20053;-70
2023/06/06 11:20:15;;;;;;;13.50;7.15;;;;;;;;;;4437867;32;20018;-70
2023/06/06 11:22:48;;;;;;;13.45;7.28;;;;;;;;;;4438757;32;20186;-70
2023/06/06 11:25:13;;;;;;;11.35;7.03;;;;;;;;;;4451255;32;20073;-71
2023/06/06 11:27:41;;;;;;;10.38;6.15;;;;;;;;;;4452378;32;20049;-70
2023/06/06 11:30:08;;;;;;;12.95;7.40;;;;;;;;;;4439953;32;20419;-71
2023/06/06 11:32:33;;;;;;;13.25;7.55;;;;;;;;;;4450534;32;20057;-71
2023/06/06 11:35:03;;;;;;;11.93;6.60;;;;;;;;;;4424496;32;20367;-70
2023/06/06 11:37:29;;;;;;;8.80;5.82;;;;;;;;;;4441402;32;20060;-71
2023/06/06 11:39:55;;;;;;;11.32;5.93;;;;;;;;;;4452525;32;20029;-71
2023/06/06 11:42:20;;;;;;;11.65;5.55;;;;;;;;;;4435078;32;20072;-71
2023/06/06 11:44:45;;;;;;;11.18;6.10;;;;;;;;;;4449854;32;20069;-72
2023/06/06 11:47:11;;;;;;;9.80;5.53;;;;;;;;;;4435919;32;20033;-73
2023/06/06 11:49:43;;;;;;;8.75;6.10;;;;;;;;;;4451945;32;20099;-72
2023/06/06 11:52:09;;;;;;;11.23;5.93;;;;;;;;;;4449782;32;20064;-71
2023/06/06 11:54:35;;;;;;;10.55;5.40;;;;;;;;;;4449776;32;20124;-75
2023/06/06 11:57:05;;;;;;;9.85;5.60;;;;;;;;;;4437202;32;20029;-71
2023/06/06 11:59:30;;;;;;;11.48;5.28;;;;;;;;;;4436468;32;20026;-72
2023/06/06 12:01:59;;;;;;;9.40;5.95;;;;;;;;;;4451652;32;20088;-71
2023/06/06 12:04:25;;;;;;;8.40;5.57;;;;;;;;;;4438782;32;20339;-72
2023/06/06 12:06:51;;;;;;;12.35;5.87;;;;;;;;;;4451793;32;20413;-71
2023/06/06 12:09:18;;;;;;;12.45;6.22;;;;;;;;;;4438459;32;20484;-72
2023/06/06 12:11:51;;;;;;;11.90;6.07;;;;;;;;;;4442016;32;20126;-72
2023/06/06 12:14:16;;;;;;;8.80;5.43;;;;;;;;;;4432216;32;20102;-71
2023/06/06 12:16:42;;;;;;;7.57;5.10;;;;;;;;;;4439599;32;20358;-70
2023/06/06 12:19:11;;;;;;;7.22;4.25;;;;;;;;;;4438628;32;20101;-71
2023/06/06 12:21:46;;;;;;;12.50;6.30;;;;;;;;;;4446808;32;20087;-72
2023/06/06 12:24:24;;;;;;;10.00;5.28;;;;;;;;;;4445757;32;20029;-71
2023/06/06 12:26:55;;;;;;;11.43;4.55;;;;;;;;;;4436655;32;20165;-71
2023/06/06 12:29:21;;;;;;;8.65;4.85;;;;;;;;;;4437325;32;20451;-72
2023/06/06 12:31:49;;;;;;;10.30;5.07;;;;;;;;;;4436435;32;20083;-70
2023/06/06 12:34:14;;;;;;;11.77;4.70;;;;;;;;;;4421849;32;20088;-71
2023/06/06 12:36:39;;;;;;;8.38;4.85;;;;;;;;;;4421941;32;20040;-71
2023/06/06 12:39:08;;;;;;;9.55;5.20;;;;;;;;;;4437254;32;20358;-72
2023/06/06 12:41:42;;;;;;;9.90;5.18;;;;;;;;;;4450733;32;20025;-72
2023/06/06 12:44:10;;;;;;;9.60;4.80;;;;;;;;;;4431886;32;20034;-72
2023/06/06 12:46:36;;;;;;;10.95;5.80;;;;;;;;;;4435824;32;20418;-72
2023/06/06 12:49:01;;;;;;;7.90;4.60;;;;;;;;;;4436282;32;20021;-71
2023/06/06 12:51:26;;;;;;;8.93;4.87;;;;;;;;;;4450341;32;20025;-71
2023/06/06 12:53:52;;;;;;;10.55;5.62;;;;;;;;;;4447459;32;20441;-72
2023/06/06 12:56:17;;;;;;;8.48;5.18;;;;;;;;;;4429915;32;20430;-73
2023/06/06 12:58:44;;;;;;;9.27;6.10;;;;;;;;;;4436468;32;20418;-72
2023/06/06 13:01:09;;;;;;;6.97;4.85;;;;;;;;;;4443036;32;20041;-72
2023/06/06 13:03:34;;;;;;;8.70;5.10;;;;;;;;;;4436116;32;20017;-71
2023/06/06 13:05:59;;;;;;;11.03;5.77;;;;;;;;;;4435990;32;20052;-71
2023/06/06 13:08:25;;;;;;;7.30;4.93;;;;;;;;;;4436799;32;20420;-72
2023/06/06 13:10:50;;;;;;;8.77;6.15;;;;;;;;;;4452622;32;20124;-71
2023/06/06 13:13:15;;;;;;;12.53;6.00;;;;;;;;;;4452032;32;20091;-71
2023/06/06 13:15:40;;;;;;;7.23;5.40;;;;;;;;;;4435427;32;20121;-70
2023/06/06 13:18:05;;;;;;;10.30;5.57;;;;;;;;;;4434782;32;20137;-71
2023/06/06 13:20:31;;;;;;;15.83;6.07;;;;;;;;;;4434247;32;20120;-71
2023/06/06 13:22:57;;;;;;;9.73;5.62;;;;;;;;;;4442561;32;20167;-72
2023/06/06 13:25:22;;;;;;;11.05;5.72;;;;;;;;;;4451597;32;20094;-71
2023/06/06 13:27:48;;;;;;;13.13;6.77;;;;;;;;;;4438928;32;20022;-72
2023/06/06 13:30:13;;;;;;;9.10;5.87;;;;;;;;;;4451043;32;20180;-71
2023/06/06 13:32:39;;;;;;;10.60;5.30;;;;;;;;;;4450570;32;20052;-72
2023/06/06 13:35:04;;;;;;;13.75;5.97;;;;;;;;;;4450931;32;20021;-73
2023/06/06 13:37:29;;;;;;;12.15;7.45;;;;;;;;;;4443334;32;20351;-71
2023/06/06 13:39:55;;;;;;;11.07;6.20;;;;;;;;;;4444572;32;20354;-72
2023/06/06 13:42:20;;;;;;;11.60;6.33;;;;;;;;;;4451172;32;20135;-72
2023/06/06 13:44:46;;;;;;;9.95;6.60;;;;;;;;;;4450088;32;20139;-71
2023/06/06 13:47:11;;;;;;;9.80;6.40;;;;;;;;;;4427207;32;20022;-71
2023/06/06 13:49:38;;;;;;;10.95;6.53;;;;;;;;;;4436771;32;20183;-71
2023/06/06 13:52:03;;;;;;;10.65;5.72;;;;;;;;;;4436934;32;20086;-72
2023/06/06 13:54:29;;;;;;;10.27;5.90;;;;;;;;;;4434879;32;20061;-72
2023/06/06 13:56:54;;;;;;;8.95;5.87;;;;;;;;;;4434954;32;20437;-72
2023/06/06 13:59:20;;;;;;;10.57;6.45;;;;;;;;;;4435478;32;20026;-71
2023/06/06 14:01:46;;;;;;;10.57;7.50;;;;;;;;;;4435468;32;20075;-73
2023/06/06 14:04:12;;;;;;;13.02;7.43;;;;;;;;;;4447578;32;20029;-72
2023/06/06 14:06:37;;;;;;;12.10;6.28;;;;;;;;;;4432951;32;20045;-72
2023/06/06 14:09:03;;;;;;;13.43;6.57;;;;;;;;;;4436036;32;20044;-71
2023/06/06 14:11:29;;;;;;;9.18;6.40;;;;;;;;;;4437992;32;20173;-71
2023/06/06 14:13:55;;;;;;;10.38;7.00;;;;;;;;;;4438607;32;20323;-72
2023/06/06 14:16:20;;;;;;;13.45;7.15;;;;;;;;;;4436441;32;20163;-72
2023/06/06 14:18:46;;;;;;;11.43;7.80;;;;;;;;;;4437770;32;20049;-73
2023/06/06 14:23:43;;;;;;;10.15;7.57;;;;;;;;;;4453919;32;20343;-72
2023/06/06 14:26:08;;;;;;;10.95;7.18;;;;;;;;;;4453532;32;20022;-72
2023/06/06 14:28:34;;;;;;;13.10;7.45;;;;;;;;;;4453483;32;20020;-72
2023/06/06 14:30:59;;;;;;;11.23;7.22;;;;;;;;;;4440734;32;20029;-72
2023/06/06 14:33:24;;;;;;;11.15;7.28;;;;;;;;;;4442890;32;20026;-71